sensor_id;sensor_type;location;lat;lon;timestamp;temperature;humidity
2723;DHT22;1369;53.216;10.396;2022-11-12T00:01:10;4.50;99.90
2723;DHT22;1369;53.216;10.396;2022-11-12T00:03:36;4.60;99.90
2723;DHT22;1369;53.216;10.396;2022-11-12T00:06:01;4.60;99.90
2723;DHT22;1369;53.216;10.396;2022-11-12T00:08:27;4.70;99.90
2723;DHT22;1369;53.216;10.396;2022-11-12T00:10:52;4.60;99.90
2723;DHT22;1369;53.216;10.396;2022-11-12T00:13:18;4.60;99.90
2723;DHT22;1369;53.216;10.396;2022-11-12T00:15:45;4.60;99.90
2723;DHT22;1369;53.216;10.396;2022-11-12T00:18:11;4.70;99.90
2723;DHT22;1369;53.216;10.396;2022-11-12T00:20:36;4.70;99.90
2723;DHT22;1369;53.216;10.396;2022-11-12T00:23:02;4.70;99.90
2723;DHT22;1369;53.216;10.396;2022-11-12T00:25:28;4.70;99.90
2723;DHT22;1369;53.216;10.396;2022-11-12T00:28:00;4.80;99.90
2723;DHT22;1369;53.216;10.396;2022-11-12T00:30:25;4.80;99.90
2723;DHT22;1369;53.216;10.396;2022-11-12T00:32:51;4.70;99.90
2723;DHT22;1369;53.216;10.396;2022-11-12T00:35:16;4.70;99.90
2723;DHT22;1369;53.216;10.396;2022-11-12T00:37:42;4.70;99.90
2723;DHT22;1369;53.216;10.396;2022-11-12T00:40:08;4.60;99.90
2723;DHT22;1369;53.216;10.396;2022-11-12T00:42:33;4.50;99.90
2723;DHT22;1369;53.216;10.396;2022-11-12T00:44:59;4.50;99.90
2723;DHT22;1369;53.216;10.396;2022-11-12T00:47:24;4.40;99.90
2723;DHT22;1369;53.216;10.396;2022-11-12T00:49:50;4.40;99.90
2723;DHT22;1369;53.216;10.396;2022-11-12T00:52:15;4.40;99.90
2723;DHT22;1369;53.216;10.396;2022-11-12T00:54:41;4.40;99.90
2723;DHT22;1369;53.216;10.396;2022-11-12T00:57:06;4.30;99.90
2723;DHT22;1369;53.216;10.396;2022-11-12T00:59:32;4.20;99.90
2723;DHT22;1369;53.216;10.396;2022-11-12T01:01:57;4.30;99.90
2723;DHT22;1369;53.216;10.396;2022-11-12T01:04:23;4.30;99.90
2723;DHT22;1369;53.216;10.396;2022-11-12T01:06:48;4.30;99.90
2723;DHT22;1369;53.216;10.396;2022-11-12T01:09:14;4.30;99.90
2723;DHT22;1369;53.216;10.396;2022-11-12T01:11:40;4.40;99.90
2723;DHT22;1369;53.216;10.396;2022-11-12T01:14:08;4.30;99.90
2723;DHT22;1369;53.216;10.396;2022-11-12T01:16:36;4.30;99.90
2723;DHT22;1369;53.216;10.396;2022-11-12T01:19:04;4.30;99.90
2723;DHT22;1369;53.216;10.396;2022-11-12T01:21:31;4.20;99.90
2723;DHT22;1369;53.216;10.396;2022-11-12T01:24:00;4.20;99.90
2723;DHT22;1369;53.216;10.396;2022-11-12T01:26:26;4.20;99.90
2723;DHT22;1369;53.216;10.396;2022-11-12T01:28:55;4.20;99.90
2723;DHT22;1369;53.216;10.396;2022-11-12T01:31:22;4.10;99.90
2723;DHT22;1369;53.216;10.396;2022-11-12T01:33:51;4.10;99.90
2723;DHT22;1369;53.216;10.396;2022-11-12T01:36:19;4.10;99.90
2723;DHT22;1369;53.216;10.396;2022-11-12T01:38:46;4.10;99.90
2723;DHT22;1369;53.216;10.396;2022-11-12T01:41:21;4.10;99.90
2723;DHT22;1369;53.216;10.396;2022-11-12T01:43:47;4.10;99.90
2723;DHT22;1369;53.216;10.396;2022-11-12T01:46:24;4.00;99.90
2723;DHT22;1369;53.216;10.396;2022-11-12T01:48:58;4.00;99.90
2723;DHT22;1369;53.216;10.396;2022-11-12T01:51:31;4.00;99.90
2723;DHT22;1369;53.216;10.396;2022-11-12T01:53:59;4.00;99.90
2723;DHT22;1369;53.216;10.396;2022-11-12T01:56:28;3.90;99.90
2723;DHT22;1369;53.216;10.396;2022-11-12T01:59:01;4.00;99.90
2723;DHT22;1369;53.216;10.396;2022-11-12T02:01:29;3.90;99.90
2723;DHT22;1369;53.216;10.396;2022-11-12T02:03:56;3.80;99.90
2723;DHT22;1369;53.216;10.396;2022-11-12T02:06:21;3.80;99.90
2723;DHT22;1369;53.216;10.396;2022-11-12T02:08:48;3.80;99.90
2723;DHT22;1369;53.216;10.396;2022-11-12T02:11:16;3.70;99.90
2723;DHT22;1369;53.216;10.396;2022-11-12T02:13:43;3.70;99.90
2723;DHT22;1369;53.216;10.396;2022-11-12T02:18:52;3.80;99.90
2723;DHT22;1369;53.216;10.396;2022-11-12T02:21:23;3.80;99.90
2723;DHT22;1369;53.216;10.396;2022-11-12T02:24:45;3.80;99.90
2723;DHT22;1369;53.216;10.396;2022-11-12T02:26:49;3.80;99.90
2723;DHT22;1369;53.216;10.396;2022-11-12T02:29:15;3.80;99.90
2723;DHT22;1369;53.216;10.396;2022-11-12T02:31:41;3.70;99.90
2723;DHT22;1369;53.216;10.396;2022-11-12T02:34:06;3.70;99.90
2723;DHT22;1369;53.216;10.396;2022-11-12T02:36:32;3.80;99.90
2723;DHT22;1369;53.216;10.396;2022-11-12T02:38:57;3.70;99.90
2723;DHT22;1369;53.216;10.396;2022-11-12T02:41:23;3.60;99.90
2723;DHT22;1369;53.216;10.396;2022-11-12T02:43:49;3.60;99.90
2723;DHT22;1369;53.216;10.396;2022-11-12T02:46:14;3.70;99.90
2723;DHT22;1369;53.216;10.396;2022-11-12T02:48:40;3.90;99.90
2723;DHT22;1369;53.216;10.396;2022-11-12T02:51:06;3.90;99.90
2723;DHT22;1369;53.216;10.396;2022-11-12T02:53:32;3.80;99.90
2723;DHT22;1369;53.216;10.396;2022-11-12T02:55:58;3.70;99.90
2723;DHT22;1369;53.216;10.396;2022-11-12T02:58:24;3.70;99.90
2723;DHT22;1369;53.216;10.396;2022-11-12T03:00:50;3.70;99.90
2723;DHT22;1369;53.216;10.396;2022-11-12T03:03:16;3.60;99.90
2723;DHT22;1369;53.216;10.396;2022-11-12T03:05:42;3.70;99.90
2723;DHT22;1369;53.216;10.396;2022-11-12T03:08:08;3.60;99.90
2723;DHT22;1369;53.216;10.396;2022-11-12T03:10:37;3.60;99.90
2723;DHT22;1369;53.216;10.396;2022-11-12T03:13:03;3.60;99.90
2723;DHT22;1369;53.216;10.396;2022-11-12T03:15:30;3.60;99.90
2723;DHT22;1369;53.216;10.396;2022-11-12T03:17:58;3.60;99.90
2723;DHT22;1369;53.216;10.396;2022-11-12T03:20:25;3.60;99.90
2723;DHT22;1369;53.216;10.396;2022-11-12T03:22:59;3.60;99.90
2723;DHT22;1369;53.216;10.396;2022-11-12T03:25:26;3.60;99.90
2723;DHT22;1369;53.216;10.396;2022-11-12T03:28:02;3.60;99.90
2723;DHT22;1369;53.216;10.396;2022-11-12T03:30:29;3.60;99.90
2723;DHT22;1369;53.216;10.396;2022-11-12T03:32:56;3.60;99.90
2723;DHT22;1369;53.216;10.396;2022-11-12T03:35:22;3.60;99.90
2723;DHT22;1369;53.216;10.396;2022-11-12T03:37:48;3.60;99.90
2723;DHT22;1369;53.216;10.396;2022-11-12T03:40:13;3.70;99.90
2723;DHT22;1369;53.216;10.396;2022-11-12T03:42:44;3.60;99.90
2723;DHT22;1369;53.216;10.396;2022-11-12T03:45:10;3.60;99.90
2723;DHT22;1369;53.216;10.396;2022-11-12T03:47:42;3.50;99.90
2723;DHT22;1369;53.216;10.396;2022-11-12T03:50:09;3.60;99.90
2723;DHT22;1369;53.216;10.396;2022-11-12T03:52:35;3.60;99.90
2723;DHT22;1369;53.216;10.396;2022-11-12T03:55:01;3.60;99.90
2723;DHT22;1369;53.216;10.396;2022-11-12T03:57:27;3.50;99.90
2723;DHT22;1369;53.216;10.396;2022-11-12T03:59:52;3.60;99.90
2723;DHT22;1369;53.216;10.396;2022-11-12T04:02:18;3.60;99.90
2723;DHT22;1369;53.216;10.396;2022-11-12T04:04:43;3.60;99.90
2723;DHT22;1369;53.216;10.396;2022-11-12T04:07:27;3.50;99.90
2723;DHT22;1369;53.216;10.396;2022-11-12T04:10:11;3.40;99.90
2723;DHT22;1369;53.216;10.396;2022-11-12T04:12:37;3.30;99.90
2723;DHT22;1369;53.216;10.396;2022-11-12T04:15:21;3.40;99.90
2723;DHT22;1369;53.216;10.396;2022-11-12T04:17:46;3.40;99.90
2723;DHT22;1369;53.216;10.396;2022-11-12T04:20:30;3.40;99.90
2723;DHT22;1369;53.216;10.396;2022-11-12T04:23:27;3.50;99.90
2723;DHT22;1369;53.216;10.396;2022-11-12T04:25:53;3.50;99.90
2723;DHT22;1369;53.216;10.396;2022-11-12T04:28:37;3.40;99.90
2723;DHT22;1369;53.216;10.396;2022-11-12T04:31:03;3.30;99.90
2723;DHT22;1369;53.216;10.396;2022-11-12T04:33:28;3.30;99.90
2723;DHT22;1369;53.216;10.396;2022-11-12T04:35:53;3.40;99.90
2723;DHT22;1369;53.216;10.396;2022-11-12T04:38:19;3.30;99.90
2723;DHT22;1369;53.216;10.396;2022-11-12T04:40:44;3.30;99.90
2723;DHT22;1369;53.216;10.396;2022-11-12T04:43:28;3.30;99.90
2723;DHT22;1369;53.216;10.396;2022-11-12T04:46:13;3.30;99.90
2723;DHT22;1369;53.216;10.396;2022-11-12T04:48:38;3.40;99.90
2723;DHT22;1369;53.216;10.396;2022-11-12T04:51:05;3.30;99.90
2723;DHT22;1369;53.216;10.396;2022-11-12T04:53:49;3.10;99.90
2723;DHT22;1369;53.216;10.396;2022-11-12T04:56:14;3.10;99.90
2723;DHT22;1369;53.216;10.396;2022-11-12T04:58:40;3.20;99.90
2723;DHT22;1369;53.216;10.396;2022-11-12T05:01:05;3.20;99.90
2723;DHT22;1369;53.216;10.396;2022-11-12T05:03:31;3.10;99.90
2723;DHT22;1369;53.216;10.396;2022-11-12T05:06:04;3.00;99.90
2723;DHT22;1369;53.216;10.396;2022-11-12T05:08:50;3.10;99.90
2723;DHT22;1369;53.216;10.396;2022-11-12T05:11:15;3.10;99.90
2723;DHT22;1369;53.216;10.396;2022-11-12T05:13:41;3.00;99.90
2723;DHT22;1369;53.216;10.396;2022-11-12T05:16:06;3.00;99.90
2723;DHT22;1369;53.216;10.396;2022-11-12T05:18:32;3.10;99.90
2723;DHT22;1369;53.216;10.396;2022-11-12T05:20:57;3.10;99.90
2723;DHT22;1369;53.216;10.396;2022-11-12T05:23:43;3.20;99.90
2723;DHT22;1369;53.216;10.396;2022-11-12T05:26:08;3.10;99.90
2723;DHT22;1369;53.216;10.396;2022-11-12T05:28:33;3.10;99.90
2723;DHT22;1369;53.216;10.396;2022-11-12T05:30:59;3.10;99.90
2723;DHT22;1369;53.216;10.396;2022-11-12T05:33:24;3.10;99.90
2723;DHT22;1369;53.216;10.396;2022-11-12T05:35:50;3.20;99.90
2723;DHT22;1369;53.216;10.396;2022-11-12T05:38:15;3.20;99.90
2723;DHT22;1369;53.216;10.396;2022-11-12T05:40:43;3.20;99.90
2723;DHT22;1369;53.216;10.396;2022-11-12T05:43:09;3.20;99.90
2723;DHT22;1369;53.216;10.396;2022-11-12T05:45:34;3.10;99.90
2723;DHT22;1369;53.216;10.396;2022-11-12T05:48:00;3.00;99.90
2723;DHT22;1369;53.216;10.396;2022-11-12T05:50:25;3.10;99.90
2723;DHT22;1369;53.216;10.396;2022-11-12T05:52:51;3.10;99.90
2723;DHT22;1369;53.216;10.396;2022-11-12T05:55:16;3.00;99.90
2723;DHT22;1369;53.216;10.396;2022-11-12T05:57:42;3.10;99.90
2723;DHT22;1369;53.216;10.396;2022-11-12T06:00:08;3.20;99.90
2723;DHT22;1369;53.216;10.396;2022-11-12T06:02:33;3.20;99.90
2723;DHT22;1369;53.216;10.396;2022-11-12T06:04:59;3.20;99.90
2723;DHT22;1369;53.216;10.396;2022-11-12T06:07:24;3.10;99.90
2723;DHT22;1369;53.216;10.396;2022-11-12T06:09:50;3.10;99.90
2723;DHT22;1369;53.216;10.396;2022-11-12T06:12:15;3.10;99.90
2723;DHT22;1369;53.216;10.396;2022-11-12T06:14:41;3.00;99.90
2723;DHT22;1369;53.216;10.396;2022-11-12T06:17:06;2.90;99.90
2723;DHT22;1369;53.216;10.396;2022-11-12T06:19:32;3.00;99.90
2723;DHT22;1369;53.216;10.396;2022-11-12T06:21:57;3.00;99.90
2723;DHT22;1369;53.216;10.396;2022-11-12T06:24:23;3.00;99.90
2723;DHT22;1369;53.216;10.396;2022-11-12T06:26:48;3.00;99.90
2723;DHT22;1369;53.216;10.396;2022-11-12T06:29:14;3.00;99.90
2723;DHT22;1369;53.216;10.396;2022-11-12T06:31:39;3.00;99.90
2723;DHT22;1369;53.216;10.396;2022-11-12T06:34:05;2.90;99.90
2723;DHT22;1369;53.216;10.396;2022-11-12T06:36:31;3.00;99.90
2723;DHT22;1369;53.216;10.396;2022-11-12T06:38:56;3.00;99.90
2723;DHT22;1369;53.216;10.396;2022-11-12T06:41:22;3.00;99.90
2723;DHT22;1369;53.216;10.396;2022-11-12T06:43:47;3.00;99.90
2723;DHT22;1369;53.216;10.396;2022-11-12T06:46:15;3.10;99.90
2723;DHT22;1369;53.216;10.396;2022-11-12T06:48:41;3.00;99.90
2723;DHT22;1369;53.216;10.396;2022-11-12T06:51:14;2.90;99.90
2723;DHT22;1369;53.216;10.396;2022-11-12T06:53:40;3.00;99.90
2723;DHT22;1369;53.216;10.396;2022-11-12T06:56:06;3.00;99.90
2723;DHT22;1369;53.216;10.396;2022-11-12T06:58:32;3.00;99.90
2723;DHT22;1369;53.216;10.396;2022-11-12T07:01:03;2.90;99.90
2723;DHT22;1369;53.216;10.396;2022-11-12T07:03:29;2.90;99.90
2723;DHT22;1369;53.216;10.396;2022-11-12T07:05:54;3.00;99.90
2723;DHT22;1369;53.216;10.396;2022-11-12T07:08:20;3.00;99.90
2723;DHT22;1369;53.216;10.396;2022-11-12T07:10:45;2.90;99.90
2723;DHT22;1369;53.216;10.396;2022-11-12T07:13:11;2.80;99.90
2723;DHT22;1369;53.216;10.396;2022-11-12T07:15:36;2.80;99.90
2723;DHT22;1369;53.216;10.396;2022-11-12T07:18:02;2.80;99.90
2723;DHT22;1369;53.216;10.396;2022-11-12T07:20:28;2.80;99.90
2723;DHT22;1369;53.216;10.396;2022-11-12T07:22:53;3.00;99.90
2723;DHT22;1369;53.216;10.396;2022-11-12T07:25:19;3.00;99.90
2723;DHT22;1369;53.216;10.396;2022-11-12T07:27:45;3.00;99.90
2723;DHT22;1369;53.216;10.396;2022-11-12T07:30:10;3.00;99.90
2723;DHT22;1369;53.216;10.396;2022-11-12T07:32:36;3.10;99.90
2723;DHT22;1369;53.216;10.396;2022-11-12T07:35:01;3.10;99.90
2723;DHT22;1369;53.216;10.396;2022-11-12T07:37:27;3.20;99.90
2723;DHT22;1369;53.216;10.396;2022-11-12T07:39:52;3.40;99.90
2723;DHT22;1369;53.216;10.396;2022-11-12T07:42:18;3.40;99.90
2723;DHT22;1369;53.216;10.396;2022-11-12T07:44:43;3.40;99.90
2723;DHT22;1369;53.216;10.396;2022-11-12T07:47:09;3.50;99.90
2723;DHT22;1369;53.216;10.396;2022-11-12T07:49:34;3.50;99.90
2723;DHT22;1369;53.216;10.396;2022-11-12T07:52:00;3.40;99.90
2723;DHT22;1369;53.216;10.396;2022-11-12T07:54:25;3.40;99.90
2723;DHT22;1369;53.216;10.396;2022-11-12T07:56:51;3.50;99.90
2723;DHT22;1369;53.216;10.396;2022-11-12T07:59:16;3.50;99.90
2723;DHT22;1369;53.216;10.396;2022-11-12T08:01:42;3.50;99.90
2723;DHT22;1369;53.216;10.396;2022-11-12T08:04:09;3.50;99.90
2723;DHT22;1369;53.216;10.396;2022-11-12T08:06:36;3.50;99.90
2723;DHT22;1369;53.216;10.396;2022-11-12T08:09:04;3.50;99.90
2723;DHT22;1369;53.216;10.396;2022-11-12T08:11:30;3.40;99.90
2723;DHT22;1369;53.216;10.396;2022-11-12T08:13:55;3.60;99.90
2723;DHT22;1369;53.216;10.396;2022-11-12T08:16:21;3.60;99.90
2723;DHT22;1369;53.216;10.396;2022-11-12T08:18:47;3.60;99.90
2723;DHT22;1369;53.216;10.396;2022-11-12T08:21:14;3.80;99.90
2723;DHT22;1369;53.216;10.396;2022-11-12T08:23:40;3.90;99.90
2723;DHT22;1369;53.216;10.396;2022-11-12T08:26:08;3.90;99.90
2723;DHT22;1369;53.216;10.396;2022-11-12T08:28:35;3.90;99.90
2723;DHT22;1369;53.216;10.396;2022-11-12T08:31:03;4.00;99.90
2723;DHT22;1369;53.216;10.396;2022-11-12T08:33:30;4.10;99.90
2723;DHT22;1369;53.216;10.396;2022-11-12T08:35:56;4.20;99.90
2723;DHT22;1369;53.216;10.396;2022-11-12T08:38:21;4.30;99.90
2723;DHT22;1369;53.216;10.396;2022-11-12T08:40:47;4.50;99.90
2723;DHT22;1369;53.216;10.396;2022-11-12T08:43:12;4.70;99.90
2723;DHT22;1369;53.216;10.396;2022-11-12T08:45:40;4.70;99.90
2723;DHT22;1369;53.216;10.396;2022-11-12T08:48:08;4.80;99.90
2723;DHT22;1369;53.216;10.396;2022-11-12T08:50:35;4.90;99.90
2723;DHT22;1369;53.216;10.396;2022-11-12T08:53:02;5.00;99.90
2723;DHT22;1369;53.216;10.396;2022-11-12T08:55:29;5.20;99.90
2723;DHT22;1369;53.216;10.396;2022-11-12T08:57:55;5.10;99.90
2723;DHT22;1369;53.216;10.396;2022-11-12T09:00:23;5.10;99.90
2723;DHT22;1369;53.216;10.396;2022-11-12T09:02:49;5.10;99.90
2723;DHT22;1369;53.216;10.396;2022-11-12T09:05:14;5.20;99.90
2723;DHT22;1369;53.216;10.396;2022-11-12T09:07:40;5.30;99.90
2723;DHT22;1369;53.216;10.396;2022-11-12T09:10:06;5.40;99.90
2723;DHT22;1369;53.216;10.396;2022-11-12T09:12:31;5.60;99.90
2723;DHT22;1369;53.216;10.396;2022-11-12T09:14:57;5.80;99.90
2723;DHT22;1369;53.216;10.396;2022-11-12T09:17:22;5.90;99.90
2723;DHT22;1369;53.216;10.396;2022-11-12T09:19:48;5.90;99.90
2723;DHT22;1369;53.216;10.396;2022-11-12T09:22:13;6.00;99.90
2723;DHT22;1369;53.216;10.396;2022-11-12T09:24:39;6.10;99.90
2723;DHT22;1369;53.216;10.396;2022-11-12T09:27:04;6.10;99.90
2723;DHT22;1369;53.216;10.396;2022-11-12T09:29:30;6.20;99.90
2723;DHT22;1369;53.216;10.396;2022-11-12T09:31:55;6.30;99.90
2723;DHT22;1369;53.216;10.396;2022-11-12T09:34:21;6.50;99.90
2723;DHT22;1369;53.216;10.396;2022-11-12T09:36:46;6.70;99.90
2723;DHT22;1369;53.216;10.396;2022-11-12T09:39:12;6.90;99.90
2723;DHT22;1369;53.216;10.396;2022-11-12T09:41:39;7.10;99.90
2723;DHT22;1369;53.216;10.396;2022-11-12T09:44:14;7.40;99.90
2723;DHT22;1369;53.216;10.396;2022-11-12T09:46:54;7.70;99.90
2723;DHT22;1369;53.216;10.396;2022-11-12T09:49:28;7.90;99.90
2723;DHT22;1369;53.216;10.396;2022-11-12T09:54:36;8.70;99.90
2723;DHT22;1369;53.216;10.396;2022-11-12T09:57:01;9.00;99.90
2723;DHT22;1369;53.216;10.396;2022-11-12T09:59:30;9.30;99.90
2723;DHT22;1369;53.216;10.396;2022-11-12T10:07:45;10.00;99.90
2723;DHT22;1369;53.216;10.396;2022-11-12T10:10:43;10.10;99.90
2723;DHT22;1369;53.216;10.396;2022-11-12T10:16:02;10.00;99.90
2723;DHT22;1369;53.216;10.396;2022-11-12T10:21:41;10.00;99.90
2723;DHT22;1369;53.216;10.396;2022-11-12T10:24:10;10.00;99.90
2723;DHT22;1369;53.216;10.396;2022-11-12T10:26:37;10.00;99.90
2723;DHT22;1369;53.216;10.396;2022-11-12T10:31:34;10.00;99.90
2723;DHT22;1369;53.216;10.396;2022-11-12T10:36:35;10.10;99.90
2723;DHT22;1369;53.216;10.396;2022-11-12T10:39:02;10.20;99.90
2723;DHT22;1369;53.216;10.396;2022-11-12T10:41:30;10.30;99.90
2723;DHT22;1369;53.216;10.396;2022-11-12T10:44:02;10.40;99.90
2723;DHT22;1369;53.216;10.396;2022-11-12T10:49:06;10.50;99.90
2723;DHT22;1369;53.216;10.396;2022-11-12T10:51:36;10.70;99.90
2723;DHT22;1369;53.216;10.396;2022-11-12T10:54:24;10.80;99.90
2723;DHT22;1369;53.216;10.396;2022-11-12T10:56:55;10.90;99.90
2723;DHT22;1369;53.216;10.396;2022-11-12T10:59:22;10.80;99.90
2723;DHT22;1369;53.216;10.396;2022-11-12T11:01:59;10.80;99.90
2723;DHT22;1369;53.216;10.396;2022-11-12T11:04:34;10.80;99.90
2723;DHT22;1369;53.216;10.396;2022-11-12T11:07:21;10.70;99.90
2723;DHT22;1369;53.216;10.396;2022-11-12T11:09:55;10.70;99.90
2723;DHT22;1369;53.216;10.396;2022-11-12T11:12:26;10.60;99.90
2723;DHT22;1369;53.216;10.396;2022-11-12T11:17:43;10.50;99.90
2723;DHT22;1369;53.216;10.396;2022-11-12T11:20:42;10.50;99.90
2723;DHT22;1369;53.216;10.396;2022-11-12T11:23:22;10.40;99.90
2723;DHT22;1369;53.216;10.396;2022-11-12T11:25:52;10.40;99.90
2723;DHT22;1369;53.216;10.396;2022-11-12T11:28:43;10.40;99.90
2723;DHT22;1369;53.216;10.396;2022-11-12T11:31:23;10.40;99.90
2723;DHT22;1369;53.216;10.396;2022-11-12T11:34:11;10.40;99.90
2723;DHT22;1369;53.216;10.396;2022-11-12T11:39:29;10.60;99.90
2723;DHT22;1369;53.216;10.396;2022-11-12T11:44:56;10.60;99.90
2723;DHT22;1369;53.216;10.396;2022-11-12T11:47:33;10.70;99.90
2723;DHT22;1369;53.216;10.396;2022-11-12T11:52:52;10.70;99.90
2723;DHT22;1369;53.216;10.396;2022-11-12T11:57:56;10.80;99.90
2723;DHT22;1369;53.216;10.396;2022-11-12T12:00:33;10.80;99.90
2723;DHT22;1369;53.216;10.396;2022-11-12T12:03:20;10.80;99.90
2723;DHT22;1369;53.216;10.396;2022-11-12T12:08:43;10.90;99.90
2723;DHT22;1369;53.216;10.396;2022-11-12T12:17:22;11.00;99.90
2723;DHT22;1369;53.216;10.396;2022-11-12T12:20:37;11.00;99.90
2723;DHT22;1369;53.216;10.396;2022-11-12T12:24:00;11.00;99.90
2723;DHT22;1369;53.216;10.396;2022-11-12T12:26:13;11.00;99.90
2723;DHT22;1369;53.216;10.396;2022-11-12T12:29:05;11.10;99.90
2723;DHT22;1369;53.216;10.396;2022-11-12T12:32:13;11.20;99.90
2723;DHT22;1369;53.216;10.396;2022-11-12T12:34:42;11.30;99.90
2723;DHT22;1369;53.216;10.396;2022-11-12T12:37:41;11.30;99.90
2723;DHT22;1369;53.216;10.396;2022-11-12T12:40:22;11.40;99.90
2723;DHT22;1369;53.216;10.396;2022-11-12T12:43:09;11.40;99.90
2723;DHT22;1369;53.216;10.396;2022-11-12T12:45:41;11.40;99.90
2723;DHT22;1369;53.216;10.396;2022-11-12T12:48:19;11.50;99.90
2723;DHT22;1369;53.216;10.396;2022-11-12T12:50:45;11.50;99.90
2723;DHT22;1369;53.216;10.396;2022-11-12T12:55:51;11.50;99.90
2723;DHT22;1369;53.216;10.396;2022-11-12T12:58:27;11.50;99.90
2723;DHT22;1369;53.216;10.396;2022-11-12T13:01:01;11.50;99.90
2723;DHT22;1369;53.216;10.396;2022-11-12T13:30:06;11.30;99.90
2723;DHT22;1369;53.216;10.396;2022-11-12T13:32:39;11.20;99.90
2723;DHT22;1369;53.216;10.396;2022-11-12T13:40:49;11.10;99.90
2723;DHT22;1369;53.216;10.396;2022-11-12T13:43:25;11.10;99.90
2723;DHT22;1369;53.216;10.396;2022-11-12T13:48:51;11.00;99.90
2723;DHT22;1369;53.216;10.396;2022-11-12T13:51:28;10.90;99.90
2723;DHT22;1369;53.216;10.396;2022-11-12T13:53:58;10.80;99.90
2723;DHT22;1369;53.216;10.396;2022-11-12T13:58:52;10.60;99.90
2723;DHT22;1369;53.216;10.396;2022-11-12T14:01:20;10.60;99.90
2723;DHT22;1369;53.216;10.396;2022-11-12T14:03:49;10.50;99.90
2723;DHT22;1369;53.216;10.396;2022-11-12T14:06:22;10.40;99.90
2723;DHT22;1369;53.216;10.396;2022-11-12T14:09:14;10.40;99.90
2723;DHT22;1369;53.216;10.396;2022-11-12T14:14:58;10.20;99.90
2723;DHT22;1369;53.216;10.396;2022-11-12T14:22:42;10.00;99.90
2723;DHT22;1369;53.216;10.396;2022-11-12T14:25:27;10.00;99.90
2723;DHT22;1369;53.216;10.396;2022-11-12T14:27:54;9.90;99.90
2723;DHT22;1369;53.216;10.396;2022-11-12T14:30:28;9.80;99.90
2723;DHT22;1369;53.216;10.396;2022-11-12T14:33:09;9.80;99.90
2723;DHT22;1369;53.216;10.396;2022-11-12T14:35:37;9.70;99.90
2723;DHT22;1369;53.216;10.396;2022-11-12T14:38:10;9.70;99.90
2723;DHT22;1369;53.216;10.396;2022-11-12T14:40:42;9.60;99.90
2723;DHT22;1369;53.216;10.396;2022-11-12T14:45:53;9.40;99.90
2723;DHT22;1369;53.216;10.396;2022-11-12T14:48:19;9.40;99.90
2723;DHT22;1369;53.216;10.396;2022-11-12T14:50:47;9.30;99.90
2723;DHT22;1369;53.216;10.396;2022-11-12T14:53:20;9.20;99.90
2723;DHT22;1369;53.216;10.396;2022-11-12T14:55:50;9.10;99.90
2723;DHT22;1369;53.216;10.396;2022-11-12T14:58:18;9.00;99.90
2723;DHT22;1369;53.216;10.396;2022-11-12T15:00:47;8.90;99.90
2723;DHT22;1369;53.216;10.396;2022-11-12T15:03:19;8.80;99.90
2723;DHT22;1369;53.216;10.396;2022-11-12T15:05:56;8.70;99.90
2723;DHT22;1369;53.216;10.396;2022-11-12T15:08:31;8.60;99.90
2723;DHT22;1369;53.216;10.396;2022-11-12T15:11:14;8.50;99.90
2723;DHT22;1369;53.216;10.396;2022-11-12T15:13:41;8.40;99.90
2723;DHT22;1369;53.216;10.396;2022-11-12T15:16:08;8.30;99.90
2723;DHT22;1369;53.216;10.396;2022-11-12T15:18:37;8.20;99.90
2723;DHT22;1369;53.216;10.396;2022-11-12T15:21:23;8.20;99.90
2723;DHT22;1369;53.216;10.396;2022-11-12T15:23:51;8.10;99.90
2723;DHT22;1369;53.216;10.396;2022-11-12T15:26:35;7.90;99.90
2723;DHT22;1369;53.216;10.396;2022-11-12T15:31:47;7.70;99.90
2723;DHT22;1369;53.216;10.396;2022-11-12T15:37:02;7.50;99.90
2723;DHT22;1369;53.216;10.396;2022-11-12T15:39:30;7.50;99.90
2723;DHT22;1369;53.216;10.396;2022-11-12T15:41:59;7.40;99.90
2723;DHT22;1369;53.216;10.396;2022-11-12T15:44:31;7.30;99.90
2723;DHT22;1369;53.216;10.396;2022-11-12T15:46:57;7.20;99.90
2723;DHT22;1369;53.216;10.396;2022-11-12T15:49:23;7.20;99.90
2723;DHT22;1369;53.216;10.396;2022-11-12T15:51:48;7.10;99.90
2723;DHT22;1369;53.216;10.396;2022-11-12T15:54:14;7.10;99.90
2723;DHT22;1369;53.216;10.396;2022-11-12T15:56:39;7.00;99.90
2723;DHT22;1369;53.216;10.396;2022-11-12T15:59:05;6.90;99.90
2723;DHT22;1369;53.216;10.396;2022-11-12T16:01:30;6.80;99.90
2723;DHT22;1369;53.216;10.396;2022-11-12T16:03:56;6.80;99.90
2723;DHT22;1369;53.216;10.396;2022-11-12T16:06:21;6.80;99.90
2723;DHT22;1369;53.216;10.396;2022-11-12T16:08:47;6.80;99.90
2723;DHT22;1369;53.216;10.396;2022-11-12T16:11:12;6.80;99.90
2723;DHT22;1369;53.216;10.396;2022-11-12T16:13:57;6.70;99.90
2723;DHT22;1369;53.216;10.396;2022-11-12T16:16:22;6.60;99.90
2723;DHT22;1369;53.216;10.396;2022-11-12T16:18:48;6.50;99.90
2723;DHT22;1369;53.216;10.396;2022-11-12T16:21:14;6.40;99.90
2723;DHT22;1369;53.216;10.396;2022-11-12T16:23:39;6.40;99.90
2723;DHT22;1369;53.216;10.396;2022-11-12T16:26:07;6.40;99.90
2723;DHT22;1369;53.216;10.396;2022-11-12T16:28:34;6.30;99.90
2723;DHT22;1369;53.216;10.396;2022-11-12T16:30:59;6.30;99.90
2723;DHT22;1369;53.216;10.396;2022-11-12T16:33:25;6.20;99.90
2723;DHT22;1369;53.216;10.396;2022-11-12T16:35:50;6.10;99.90
2723;DHT22;1369;53.216;10.396;2022-11-12T16:38:16;6.10;99.90
2723;DHT22;1369;53.216;10.396;2022-11-12T16:40:43;6.10;99.90
2723;DHT22;1369;53.216;10.396;2022-11-12T16:43:09;6.10;99.90
2723;DHT22;1369;53.216;10.396;2022-11-12T16:45:37;6.10;99.90
2723;DHT22;1369;53.216;10.396;2022-11-12T16:48:19;6.00;99.90
2723;DHT22;1369;53.216;10.396;2022-11-12T16:50:46;6.00;99.90
2723;DHT22;1369;53.216;10.396;2022-11-12T16:53:12;5.90;99.90
2723;DHT22;1369;53.216;10.396;2022-11-12T16:55:37;5.90;99.90
2723;DHT22;1369;53.216;10.396;2022-11-12T16:58:03;5.90;99.90
2723;DHT22;1369;53.216;10.396;2022-11-12T17:00:29;6.00;99.90
2723;DHT22;1369;53.216;10.396;2022-11-12T17:02:54;5.90;99.90
2723;DHT22;1369;53.216;10.396;2022-11-12T17:05:24;5.90;99.90
2723;DHT22;1369;53.216;10.396;2022-11-12T17:07:54;5.80;99.90
2723;DHT22;1369;53.216;10.396;2022-11-12T17:10:23;5.70;99.90
2723;DHT22;1369;53.216;10.396;2022-11-12T17:12:50;5.60;99.90
2723;DHT22;1369;53.216;10.396;2022-11-12T17:15:16;5.50;99.90
2723;DHT22;1369;53.216;10.396;2022-11-12T17:17:42;5.50;99.90
2723;DHT22;1369;53.216;10.396;2022-11-12T17:20:08;5.40;99.90
2723;DHT22;1369;53.216;10.396;2022-11-12T17:22:34;5.30;99.90
2723;DHT22;1369;53.216;10.396;2022-11-12T17:24:59;5.30;99.90
2723;DHT22;1369;53.216;10.396;2022-11-12T17:27:25;5.30;99.90
2723;DHT22;1369;53.216;10.396;2022-11-12T17:29:51;5.20;99.90
2723;DHT22;1369;53.216;10.396;2022-11-12T17:32:17;5.10;99.90
2723;DHT22;1369;53.216;10.396;2022-11-12T17:34:42;5.10;99.90
2723;DHT22;1369;53.216;10.396;2022-11-12T17:37:08;5.10;99.90
2723;DHT22;1369;53.216;10.396;2022-11-12T17:39:33;5.10;99.90
2723;DHT22;1369;53.216;10.396;2022-11-12T17:41:59;5.00;99.90
2723;DHT22;1369;53.216;10.396;2022-11-12T17:44:24;5.00;99.90
2723;DHT22;1369;53.216;10.396;2022-11-12T17:46:53;5.00;99.90
2723;DHT22;1369;53.216;10.396;2022-11-12T17:49:18;5.00;99.90
2723;DHT22;1369;53.216;10.396;2022-11-12T17:51:44;5.00;99.90
2723;DHT22;1369;53.216;10.396;2022-11-12T17:54:09;4.90;99.90
